createdAt,value
2023-04-20T00:00:11.088Z,100704.50
2023-04-20T00:02:41.886Z,100708.03
2023-04-20T00:05:10.816Z,100702.66
2023-04-20T00:07:38.733Z,100693.75
2023-04-20T00:10:07.091Z,100697.28
2023-04-20T00:12:34.433Z,100695.59
2023-04-20T00:15:02.053Z,100696.56
2023-04-20T00:17:29.400Z,100697.44
2023-04-20T00:19:56.881Z,100692.91
2023-04-20T00:22:25.316Z,100692.91
2023-04-20T00:24:52.663Z,100681.31
2023-04-20T00:27:19.868Z,100680.44
2023-04-20T00:29:47.399Z,100678.63
2023-04-20T00:32:14.726Z,100679.59
2023-04-20T00:34:43.973Z,100674.22
2023-04-20T00:37:11.690Z,100675.06
2023-04-20T00:39:38.945Z,100670.69
2023-04-20T00:42:07.742Z,100667.16
2023-04-20T00:44:35.580Z,100662.63
2023-04-20T00:47:02.867Z,100667.16
2023-04-20T00:49:31.898Z,100673.38
2023-04-20T00:52:00.521Z,100669.84
2023-04-20T00:54:29.464Z,100668.00
2023-04-20T00:56:58.235Z,100664.47
2023-04-20T00:59:25.610Z,100667.16
2023-04-20T01:01:53.561Z,100664.63
2023-04-20T01:04:21.337Z,100668.16
2023-04-20T01:06:48.789Z,100660.09
2023-04-20T01:09:16.284Z,100660.22
2023-04-20T01:11:45.038Z,100658.41
2023-04-20T01:14:16.898Z,100659.25
2023-04-20T01:16:44.987Z,100654.72
2023-04-20T01:19:13.759Z,100648.50
2023-04-20T01:21:41.531Z,100652.16
2023-04-20T01:24:08.976Z,100654.84
2023-04-20T01:26:36.290Z,100654.00
2023-04-20T01:29:03.761Z,100643.25
2023-04-20T01:31:31.865Z,100644.09
2023-04-20T01:33:59.315Z,100654.00
2023-04-20T01:36:27.139Z,100650.47
2023-04-20T01:38:55.881Z,100649.47
2023-04-20T01:41:23.305Z,100642.41
2023-04-20T01:43:50.608Z,100636.19
2023-04-20T01:46:17.954Z,100637.03
2023-04-20T01:48:47.597Z,100648.63
2023-04-20T01:51:15.826Z,100641.56
2023-04-20T01:53:43.139Z,100639.72
2023-04-20T01:56:10.509Z,100638.03
2023-04-20T01:58:38.074Z,100642.41
2023-04-20T02:01:05.622Z,100646.09
2023-04-20T02:03:33.713Z,100637.19
2023-04-20T02:06:01.052Z,100645.22
2023-04-20T02:08:30.472Z,100639.88
2023-04-20T02:10:57.803Z,100649.75
2023-04-20T02:13:25.699Z,100644.41
2023-04-20T02:15:53.001Z,100634.63
2023-04-20T02:18:23.005Z,100634.63
2023-04-20T02:20:50.375Z,100631.94
2023-04-20T02:23:17.747Z,100634.63
2023-04-20T02:25:45.133Z,100631.94
2023-04-20T02:28:12.694Z,100630.22
2023-04-20T02:30:40.002Z,100630.22
2023-04-20T02:33:07.546Z,100627.56
2023-04-20T02:35:34.817Z,100625.84
2023-04-20T02:38:04.462Z,100623.03
2023-04-20T02:40:31.768Z,100619.50
2023-04-20T02:42:59.050Z,100615.13
2023-04-20T02:45:28.205Z,100618.66
2023-04-20T02:47:55.812Z,100626.72
2023-04-20T02:50:23.921Z,100624.88
2023-04-20T02:53:06.691Z,100627.69
2023-04-20T02:55:36.692Z,100624.03
2023-04-20T02:58:13.243Z,100626.72
2023-04-20T03:01:07.204Z,100618.81
2023-04-20T03:03:37.736Z,100615.28
2023-04-20T03:06:08.827Z,100621.47
2023-04-20T03:08:36.400Z,100626.00
2023-04-20T03:11:23.170Z,100616.13
2023-04-20T03:13:51.016Z,100624.16
2023-04-20T03:16:18.375Z,100623.31
2023-04-20T03:18:50.189Z,100629.53
2023-04-20T03:21:17.571Z,100631.38
2023-04-20T03:23:45.778Z,100624.16
2023-04-20T03:26:13.633Z,100633.19
2023-04-20T03:29:08.453Z,100623.31
2023-04-20T03:31:35.876Z,100617.94
2023-04-20T03:34:03.279Z,100617.94
2023-04-20T03:36:30.808Z,100622.44
2023-04-20T03:38:58.174Z,100618.81
2023-04-20T03:41:25.349Z,100624.16
2023-04-20T03:43:52.666Z,100623.31
2023-04-20T03:46:22.050Z,100619.66
2023-04-20T03:48:50.942Z,100618.81
2023-04-20T03:51:18.339Z,100616.97
2023-04-20T03:53:45.732Z,100617.06
2023-04-20T03:56:14.256Z,100607.22
2023-04-20T03:58:42.279Z,100613.44
2023-04-20T04:01:18.098Z,100614.38
2023-04-20T04:03:48.917Z,100613.53
2023-04-20T04:06:17.288Z,100606.47
2023-04-20T04:08:46.109Z,100605.50
2023-04-20T04:11:13.842Z,100603.81
2023-04-20T04:13:41.433Z,100616.22
2023-04-20T04:16:09.696Z,100613.69
2023-04-20T04:18:38.115Z,100615.38
2023-04-20T04:21:10.479Z,100613.69
2023-04-20T04:23:42.309Z,100627.13
2023-04-20T04:26:15.827Z,100621.75
2023-04-20T04:28:45.919Z,100622.75
2023-04-20T04:31:21.566Z,100630.66
2023-04-20T04:33:49.760Z,100633.50
2023-04-20T04:36:27.659Z,100631.66
2023-04-20T04:38:57.620Z,100637.03
2023-04-20T04:41:25.721Z,100632.66
2023-04-20T04:43:56.187Z,100630.81
2023-04-20T04:46:29.972Z,100632.66
2023-04-20T04:49:01.276Z,100632.66
2023-04-20T04:51:28.790Z,100634.47
2023-04-20T04:53:56.597Z,100643.41
2023-04-20T04:56:23.955Z,100637.16
2023-04-20T04:58:51.242Z,100643.41
2023-04-20T05:01:18.689Z,100643.50
2023-04-20T05:03:46.239Z,100652.41
2023-04-20T05:06:13.635Z,100643.50
2023-04-20T05:08:41.221Z,100647.88
2023-04-20T05:11:08.724Z,100644.34
2023-04-20T05:13:35.935Z,100641.66
2023-04-20T05:16:03.261Z,100648.88
2023-04-20T05:18:30.592Z,100643.50
2023-04-20T05:20:57.781Z,100645.34
2023-04-20T05:23:25.242Z,100649.88
2023-04-20T05:25:52.449Z,100645.34
2023-04-20T05:28:20.258Z,100651.56
2023-04-20T05:30:47.605Z,100645.34
2023-04-20T05:33:14.961Z,100653.41
2023-04-20T05:35:42.157Z,100652.41
2023-04-20T05:38:09.507Z,100658.78
2023-04-20T05:40:36.816Z,100666.00
2023-04-20T05:43:04.090Z,100662.31
2023-04-20T05:45:33.140Z,100661.47
2023-04-20T05:48:00.759Z,100661.47
2023-04-20T05:50:28.130Z,100666.84
2023-04-20T05:52:55.492Z,100657.94
2023-04-20T05:55:23.232Z,100661.63
2023-04-20T05:57:51.948Z,100665.16
2023-04-20T06:00:19.629Z,100665.16
2023-04-20T06:02:47.282Z,100663.47
2023-04-20T06:05:15.001Z,100671.50
2023-04-20T06:07:42.523Z,100676.72
2023-04-20T06:10:10.328Z,100672.34
2023-04-20T06:12:38.094Z,100675.03
2023-04-20T06:15:10.929Z,100686.63
2023-04-20T06:17:40.646Z,100685.78
2023-04-20T06:20:10.487Z,100683.09
2023-04-20T06:22:43.467Z,100686.75
2023-04-20T06:25:11.048Z,100688.47
2023-04-20T06:27:38.325Z,100685.78
2023-04-20T06:30:06.584Z,100690.31
2023-04-20T06:32:33.950Z,100694.81
2023-04-20T06:35:01.301Z,100691.16
2023-04-20T06:37:28.583Z,100697.50
2023-04-20T06:39:56.085Z,100702.75
2023-04-20T06:42:23.312Z,100693.97
2023-04-20T06:44:51.008Z,100695.69
2023-04-20T06:47:18.318Z,100699.22
2023-04-20T06:49:45.754Z,100700.06
2023-04-20T06:52:13.082Z,100694.53
2023-04-20T06:54:40.300Z,100696.38
2023-04-20T06:57:07.606Z,100695.38
2023-04-20T06:59:34.843Z,100690.84
2023-04-20T07:02:02.524Z,100696.22
2023-04-20T07:04:29.991Z,100689.16
2023-04-20T07:06:57.205Z,100682.09
2023-04-20T07:12:06.504Z,100684.66
2023-04-20T07:14:34.049Z,100677.59
2023-04-20T07:17:01.418Z,100685.50
2023-04-20T07:19:28.680Z,100683.78
2023-04-20T07:21:56.060Z,100684.66
2023-04-20T07:24:23.258Z,100686.38
2023-04-20T07:26:50.604Z,100688.16
2023-04-20T07:29:17.988Z,100690.84
2023-04-20T07:31:45.490Z,100693.44
2023-04-20T07:34:12.930Z,100692.59
2023-04-20T07:36:40.197Z,100689.91
2023-04-20T07:39:08.107Z,100692.59
2023-04-20T07:41:36.471Z,100699.66
2023-04-20T07:44:03.800Z,100699.66
2023-04-20T07:46:31.208Z,100699.66
2023-04-20T07:48:58.493Z,100695.13
2023-04-20T07:51:26.726Z,100687.22
2023-04-20T07:53:54.028Z,100688.06
2023-04-20T07:56:21.695Z,100686.22
2023-04-20T07:58:49.000Z,100687.22
2023-04-20T08:01:16.409Z,100684.53
2023-04-20T08:03:43.793Z,100687.22
2023-04-20T08:06:11.182Z,100696.97
2023-04-20T08:08:38.473Z,100690.75
2023-04-20T08:11:08.186Z,100696.97
2023-04-20T08:13:38.704Z,100688.06
2023-04-20T08:16:07.324Z,100685.38
2023-04-20T08:18:34.758Z,100692.59
2023-04-20T08:21:02.176Z,100694.41
2023-04-20T08:23:29.607Z,100689.91
2023-04-20T08:25:57.389Z,100692.69
2023-04-20T08:30:56.945Z,100693.69
2023-04-20T08:33:24.209Z,100691.00
2023-04-20T08:35:52.690Z,100698.06
2023-04-20T08:38:30.596Z,100692.59
2023-04-20T08:41:00.942Z,100689.06
2023-04-20T08:43:28.392Z,100696.97
2023-04-20T08:46:00.385Z,100688.06
2023-04-20T08:48:40.838Z,100682.69
2023-04-20T08:51:08.371Z,100683.53
2023-04-20T08:53:35.807Z,100683.53
2023-04-20T08:56:03.760Z,100679.00
2023-04-20T08:58:32.886Z,100678.00
2023-04-20T09:01:01.331Z,100686.06
2023-04-20T09:03:37.115Z,100676.31
2023-04-20T09:06:06.367Z,100675.31
2023-04-20T09:08:39.105Z,100665.56
2023-04-20T09:11:07.241Z,100676.16
2023-04-20T09:13:35.260Z,100669.84
2023-04-20T09:16:12.751Z,100672.38
2023-04-20T09:18:40.232Z,100675.91
2023-04-20T09:21:11.223Z,100670.53
2023-04-20T09:23:38.607Z,100665.16
2023-04-20T09:26:06.389Z,100658.78
2023-04-20T09:28:39.748Z,100662.47
2023-04-20T09:31:18.021Z,100650.72
2023-04-20T09:33:45.543Z,100656.09
2023-04-20T09:36:13.662Z,100653.28
2023-04-20T09:38:40.906Z,100648.75
2023-04-20T09:41:08.835Z,100637.19
2023-04-20T09:43:36.240Z,100648.75
2023-04-20T09:46:03.881Z,100639.72
2023-04-20T09:48:32.215Z,100635.19
2023-04-20T09:51:02.130Z,100637.75
2023-04-20T09:53:31.410Z,100644.81
2023-04-20T09:56:00.598Z,100644.81
2023-04-20T09:58:29.218Z,100636.59
2023-04-20T10:00:56.587Z,100640.13
2023-04-20T10:03:24.121Z,100646.38
2023-04-20T10:05:55.579Z,100656.97
2023-04-20T10:08:24.483Z,100650.59
2023-04-20T10:10:52.409Z,100650.59
2023-04-20T10:13:21.805Z,100651.44
2023-04-20T10:15:49.200Z,100653.19
2023-04-20T10:18:24.840Z,100652.31
2023-04-20T10:21:09.639Z,100654.88
2023-04-20T10:23:48.343Z,100639.75
2023-04-20T10:26:16.592Z,100643.28
2023-04-20T10:28:45.065Z,100644.25
2023-04-20T10:31:14.150Z,100647.81
2023-04-20T10:33:51.685Z,100630.81
2023-04-20T10:36:34.555Z,100630.69
2023-04-20T10:39:05.147Z,100635.22
2023-04-20T10:41:32.529Z,100639.75
2023-04-20T10:44:10.226Z,100631.69
2023-04-20T10:46:37.729Z,100626.31
2023-04-20T10:49:05.166Z,100634.38
2023-04-20T10:51:32.461Z,100624.47
2023-04-20T10:54:06.742Z,100618.25
2023-04-20T10:57:02.424Z,100620.94
2023-04-20T10:59:29.658Z,100618.25
2023-04-20T11:01:56.948Z,100617.38
2023-04-20T11:04:32.494Z,100606.63
2023-04-20T11:07:07.863Z,100609.31
2023-04-20T11:09:38.182Z,100607.50
2023-04-20T11:12:06.603Z,100606.50
2023-04-20T11:14:38.308Z,100599.28
2023-04-20T11:17:06.093Z,100598.44
2023-04-20T11:19:35.817Z,100601.13
2023-04-20T11:22:04.667Z,100586.84
2023-04-20T11:24:34.169Z,100596.59
2023-04-20T11:27:02.982Z,100585.84
2023-04-20T11:29:38.738Z,100579.63
2023-04-20T11:32:10.779Z,100586.53
2023-04-20T11:34:40.017Z,100580.34
2023-04-20T11:37:10.130Z,100570.44
2023-04-20T11:39:37.997Z,100572.16
2023-04-20T11:42:06.133Z,100577.53
2023-04-20T11:44:34.403Z,100568.63
2023-04-20T11:47:01.937Z,100570.31
2023-04-20T11:49:29.431Z,100565.78
2023-04-20T11:51:56.779Z,100573.00
2023-04-20T11:54:24.496Z,100564.94
2023-04-20T11:56:51.999Z,100568.63
2023-04-20T11:59:20.441Z,100568.47
2023-04-20T12:01:48.449Z,100561.41
2023-04-20T12:04:16.388Z,100563.25
2023-04-20T12:06:45.047Z,100560.56
2023-04-20T12:09:13.683Z,100555.19
2023-04-20T12:11:40.984Z,100547.25
2023-04-20T12:14:08.268Z,100553.47
2023-04-20T12:16:35.627Z,100552.50
2023-04-20T12:19:03.332Z,100546.25
2023-04-20T12:21:31.940Z,100558.84
2023-04-20T12:23:59.180Z,100553.34
2023-04-20T12:26:36.959Z,100545.28
2023-04-20T12:29:05.077Z,100546.13
2023-04-20T12:31:32.687Z,100541.59
2023-04-20T12:34:00.165Z,100542.44
2023-04-20T12:36:28.184Z,100552.19
2023-04-20T12:38:56.993Z,100548.66
2023-04-20T12:41:24.810Z,100552.19
2023-04-20T12:43:52.140Z,100547.81
2023-04-20T12:46:20.390Z,100548.66
2023-04-20T12:48:47.879Z,100551.34
2023-04-20T12:51:16.741Z,100541.59
2023-04-20T12:53:44.028Z,100543.28
2023-04-20T12:56:11.309Z,100542.44
2023-04-20T12:58:38.759Z,100540.59
2023-04-20T13:01:06.375Z,100548.66
2023-04-20T13:03:33.916Z,100544.13
2023-04-20T13:06:01.613Z,100546.81
2023-04-20T13:08:28.812Z,100541.44
2023-04-20T13:10:56.157Z,100537.91
2023-04-20T13:13:23.440Z,100538.75
2023-04-20T13:15:53.954Z,100540.59
2023-04-20T13:18:21.978Z,100536.22
2023-04-20T13:20:49.214Z,100530.84
2023-04-20T13:23:16.646Z,100531.84
2023-04-20T13:25:44.256Z,100529.16
2023-04-20T13:28:14.542Z,100525.75
2023-04-20T13:30:42.163Z,100527.75
2023-04-20T13:33:09.743Z,100520.66
2023-04-20T13:35:37.282Z,100529.59
2023-04-20T13:38:05.394Z,100522.38
2023-04-20T13:40:32.899Z,100524.22
2023-04-20T13:43:00.350Z,100516.00
2023-04-20T13:45:28.341Z,100513.31
2023-04-20T13:47:56.591Z,100507.94
2023-04-20T13:50:24.422Z,100504.25
2023-04-20T13:52:51.742Z,100504.25
2023-04-20T13:55:20.651Z,100503.25
2023-04-20T13:57:48.004Z,100500.56
2023-04-20T14:00:15.688Z,100511.31
2023-04-20T14:02:44.196Z,100526.59
2023-04-20T14:05:12.859Z,100519.38
2023-04-20T14:07:40.292Z,100520.25
2023-04-20T14:10:08.395Z,100521.09
2023-04-20T14:12:35.708Z,100516.69
2023-04-20T14:15:03.525Z,100517.56
2023-04-20T14:17:31.680Z,100543.44
2023-04-20T14:19:59.311Z,100547.97
2023-04-20T14:22:26.513Z,100543.56
2023-04-20T14:24:53.724Z,100549.81
2023-04-20T14:27:20.925Z,100537.22
2023-04-20T14:29:48.050Z,100537.22
2023-04-20T14:32:15.388Z,100532.81
2023-04-20T14:34:42.649Z,100543.56
2023-04-20T14:37:10.012Z,100544.44
2023-04-20T14:39:37.381Z,100565.94
2023-04-20T14:42:04.747Z,100582.19
2023-04-20T14:44:32.024Z,100589.22
2023-04-20T14:46:59.522Z,100584.84
2023-04-20T14:49:26.822Z,100577.66
2023-04-20T14:51:54.131Z,100563.38
2023-04-20T14:54:21.381Z,100552.63
2023-04-20T14:56:48.600Z,100545.41
2023-04-20T14:59:15.808Z,100529.44
2023-04-20T15:01:51.648Z,100536.50
2023-04-20T15:04:28.751Z,100524.06
2023-04-20T15:06:56.111Z,100535.66
2023-04-20T15:09:23.461Z,100545.56
2023-04-20T15:11:50.749Z,100528.59
2023-04-20T15:14:18.259Z,100527.75
2023-04-20T15:16:45.802Z,100533.97
2023-04-20T15:19:13.058Z,100536.66
2023-04-20T15:21:41.031Z,100553.63
2023-04-20T15:24:09.266Z,100556.31
2023-04-20T15:26:36.494Z,100554.63
2023-04-20T15:29:03.818Z,100562.69
2023-04-20T15:31:31.272Z,100574.28
2023-04-20T15:33:59.943Z,100586.69
2023-04-20T15:36:27.567Z,100597.59
2023-04-20T15:38:57.416Z,100587.81
2023-04-20T15:41:25.135Z,100602.13
2023-04-20T15:43:52.480Z,100601.25
2023-04-20T15:46:23.429Z,100609.31
2023-04-20T15:48:50.768Z,100611.16
2023-04-20T15:51:20.139Z,100605.78
2023-04-20T15:53:51.314Z,100600.41
2023-04-20T15:56:18.917Z,100574.38
2023-04-20T15:58:48.682Z,100569.00
2023-04-20T16:01:17.952Z,100561.97
2023-04-20T16:03:46.378Z,100563.63
2023-04-20T16:06:13.978Z,100568.16
2023-04-20T16:08:41.655Z,100580.75
2023-04-20T16:11:09.505Z,100584.28
2023-04-20T16:13:36.939Z,100583.44
2023-04-20T16:16:04.322Z,100577.22
2023-04-20T16:18:32.976Z,100578.06
2023-04-20T16:21:00.299Z,100589.81
2023-04-20T16:23:28.681Z,100598.72
2023-04-20T16:25:56.017Z,100592.66
2023-04-20T16:28:23.273Z,100598.88
2023-04-20T16:30:50.628Z,100603.25
2023-04-20T16:33:18.597Z,100594.47
2023-04-20T16:35:46.384Z,100578.34
2023-04-20T16:38:13.742Z,100582.75
2023-04-20T16:40:42.761Z,100590.81
2023-04-20T16:43:10.262Z,100592.66
2023-04-20T16:45:39.067Z,100597.03
2023-04-20T16:48:06.584Z,100593.50
2023-04-20T16:50:35.456Z,100595.34
2023-04-20T16:53:03.521Z,100592.66
2023-04-20T16:55:32.234Z,100600.84
2023-04-20T16:58:02.379Z,100596.31
2023-04-20T17:00:33.293Z,100606.22
2023-04-20T17:03:03.858Z,100606.22
2023-04-20T17:05:31.870Z,100601.84
2023-04-20T17:07:59.198Z,100615.13
2023-04-20T17:10:26.469Z,100623.16
2023-04-20T17:12:53.715Z,100631.22
2023-04-20T17:15:21.403Z,100638.31
2023-04-20T17:17:48.705Z,100632.94
2023-04-20T17:20:16.136Z,100625.75
2023-04-20T17:22:43.337Z,100617.81
2023-04-20T17:25:10.538Z,100615.97
2023-04-20T17:27:38.014Z,100632.94
2023-04-20T17:30:06.223Z,100625.75
2023-04-20T17:32:33.425Z,100636.47
2023-04-20T17:35:00.805Z,100642.69
2023-04-20T17:37:28.101Z,100646.22
2023-04-20T17:39:55.938Z,100648.75
2023-04-20T17:42:23.338Z,100654.13
2023-04-20T17:44:51.430Z,100651.44
2023-04-20T17:47:18.801Z,100647.81
2023-04-20T17:49:46.158Z,100654.97
2023-04-20T17:52:17.892Z,100663.91
2023-04-20T17:54:46.075Z,100674.66
2023-04-20T17:57:14.343Z,100685.41
2023-04-20T17:59:44.389Z,100690.78
2023-04-20T18:02:12.905Z,100690.78
2023-04-20T18:04:40.512Z,100693.47
2023-04-20T18:07:07.892Z,100681.84
2023-04-20T18:09:35.085Z,100687.22
2023-04-20T18:12:02.334Z,100687.22
2023-04-20T18:14:29.584Z,100697.00
2023-04-20T18:16:56.964Z,100684.41
2023-04-20T18:19:24.428Z,100675.63
2023-04-20T18:21:51.729Z,100677.34
2023-04-20T18:24:19.283Z,100668.31
2023-04-20T18:26:46.671Z,100669.16
2023-04-20T18:29:13.959Z,100667.31
2023-04-20T18:31:42.644Z,100675.38
2023-04-20T18:34:11.569Z,100676.22
2023-04-20T18:36:40.312Z,100688.78
2023-04-20T18:39:09.546Z,100684.41
2023-04-20T18:41:37.246Z,100699.53
2023-04-20T18:44:04.672Z,100693.31
2023-04-20T18:46:31.924Z,100704.91
2023-04-20T18:48:59.435Z,100714.81
2023-04-20T18:51:27.519Z,100720.19
2023-04-20T18:53:54.925Z,100729.09
2023-04-20T18:56:22.112Z,100728.94
2023-04-20T18:58:49.376Z,100730.78
2023-04-20T19:01:16.938Z,100730.78
2023-04-20T19:03:47.175Z,100735.31
2023-04-20T19:06:15.394Z,100744.22
2023-04-20T19:08:42.646Z,100746.91
2023-04-20T19:11:09.952Z,100732.50
2023-04-20T19:13:45.384Z,100739.84
2023-04-20T19:16:16.238Z,100734.31
2023-04-20T19:18:44.321Z,100741.53
2023-04-20T19:21:14.124Z,100731.63
2023-04-20T19:23:41.633Z,100717.22
2023-04-20T19:26:08.942Z,100713.56
2023-04-20T19:28:36.269Z,100710.13
2023-04-20T19:31:03.810Z,100700.28
2023-04-20T19:33:31.469Z,100711.84
2023-04-20T19:35:59.299Z,100714.56
2023-04-20T19:38:31.003Z,100716.38
2023-04-20T19:40:58.421Z,100721.75
2023-04-20T19:43:25.779Z,100727.97
2023-04-20T19:45:55.548Z,100724.31
2023-04-20T19:48:22.868Z,100719.78
2023-04-20T19:50:53.459Z,100716.09
2023-04-20T19:53:22.965Z,100730.53
2023-04-20T19:55:50.211Z,100740.41
2023-04-20T19:58:17.595Z,100737.72
2023-04-20T20:00:44.912Z,100740.41
2023-04-20T20:03:14.925Z,100743.97
2023-04-20T20:05:45.536Z,100743.09
2023-04-20T20:08:13.752Z,100750.31
2023-04-20T20:10:41.452Z,100744.09
2023-04-20T20:13:08.745Z,100753.84
2023-04-20T20:15:37.501Z,100754.00
2023-04-20T20:18:05.165Z,100754.00
2023-04-20T20:20:32.515Z,100753.13
2023-04-20T20:23:00.413Z,100775.50
2023-04-20T20:25:27.727Z,100765.72
2023-04-20T20:27:54.982Z,100769.25
2023-04-20T20:30:25.309Z,100774.63
2023-04-20T20:32:53.382Z,100769.25
2023-04-20T20:35:21.330Z,100763.88
2023-04-20T20:37:48.620Z,100766.56
2023-04-20T20:40:16.000Z,100766.56
2023-04-20T20:42:45.099Z,100771.94
2023-04-20T20:45:13.002Z,100771.94
2023-04-20T20:47:41.420Z,100774.63
2023-04-20T20:50:10.273Z,100763.88
2023-04-20T20:52:37.646Z,100764.75
2023-04-20T20:55:07.654Z,100768.41
2023-04-20T20:57:35.585Z,100761.19
2023-04-20T21:00:08.254Z,100766.56
2023-04-20T21:02:36.895Z,100760.34
2023-04-20T21:05:08.477Z,100758.50
2023-04-20T21:07:37.127Z,100765.72
2023-04-20T21:10:04.698Z,100766.44
2023-04-20T21:12:31.987Z,100771.94
2023-04-20T21:14:59.268Z,100763.88
2023-04-20T21:17:26.791Z,100758.50
2023-04-20T21:19:54.210Z,100765.59
2023-04-20T21:22:22.709Z,100765.59
2023-04-20T21:24:50.052Z,100763.88
2023-04-20T21:27:17.324Z,100766.56
2023-04-20T21:29:44.552Z,100756.53
2023-04-20T21:32:11.835Z,100761.19
2023-04-20T21:34:39.255Z,100757.53
2023-04-20T21:37:07.073Z,100773.66
2023-04-20T21:39:34.559Z,100764.75
2023-04-20T21:42:03.124Z,100776.34
2023-04-20T21:44:30.397Z,100770.97
2023-04-20T21:46:57.652Z,100770.97
2023-04-20T21:49:24.851Z,100776.34
2023-04-20T21:51:52.028Z,100781.72
2023-04-20T21:54:19.282Z,100780.00
2023-04-20T21:56:47.364Z,100779.88
2023-04-20T21:59:14.823Z,100787.09
2023-04-20T22:01:42.413Z,100785.38
2023-04-20T22:04:10.500Z,100791.63
2023-04-20T22:06:38.004Z,100794.31
2023-04-20T22:09:05.480Z,100792.47
2023-04-20T22:11:36.464Z,100787.94
2023-04-20T22:14:15.851Z,100792.47
2023-04-20T22:16:43.525Z,100785.38
2023-04-20T22:19:11.563Z,100789.78
2023-04-20T22:21:39.084Z,100792.47
2023-04-20T22:24:06.771Z,100794.31
2023-04-20T22:26:34.111Z,100804.91
2023-04-20T22:29:01.372Z,100799.69
2023-04-20T22:31:28.679Z,100804.06
2023-04-20T22:33:56.024Z,100802.47
2023-04-20T22:36:23.336Z,100809.56
2023-04-20T22:38:50.719Z,100810.53
2023-04-20T22:41:18.035Z,100808.84
2023-04-20T22:43:45.308Z,100811.53
2023-04-20T22:46:12.669Z,100804.47
2023-04-20T22:48:41.642Z,100806.16
2023-04-20T22:51:08.855Z,100807.16
2023-04-20T22:53:36.162Z,100808.13
2023-04-20T22:56:07.739Z,100805.44
2023-04-20T22:58:35.163Z,100809.00
2023-04-20T23:01:02.801Z,100803.75
2023-04-20T23:03:30.451Z,100800.06
2023-04-20T23:05:59.269Z,100802.06
2023-04-20T23:08:28.142Z,100797.53
2023-04-20T23:10:55.472Z,100790.47
2023-04-20T23:13:24.786Z,100795.84
2023-04-20T23:15:52.415Z,100795.84
2023-04-20T23:18:19.740Z,100797.66
2023-04-20T23:20:47.014Z,100789.63
2023-04-20T23:23:14.310Z,100779.81
2023-04-20T23:25:41.642Z,100782.50
2023-04-20T23:28:08.947Z,100788.75
2023-04-20T23:30:36.598Z,100792.31
2023-04-20T23:33:04.021Z,100795.09
2023-04-20T23:35:31.368Z,100780.72
2023-04-20T23:37:58.608Z,100781.66
2023-04-20T23:40:26.037Z,100779.81
2023-04-20T23:42:55.170Z,100783.41
2023-04-20T23:45:23.250Z,100777.28
2023-04-20T23:47:50.721Z,100776.44
2023-04-20T23:50:18.157Z,100778.13
2023-04-20T23:52:45.507Z,100773.75
2023-04-20T23:55:12.821Z,100778.13
2023-04-20T23:57:40.064Z,100776.44
